createdAt,value
2018-10-12T00:00:44.058Z,12.07
2018-10-12T00:03:14.147Z,12.09
2018-10-12T00:05:44.058Z,11.98
2018-10-12T00:08:13.789Z,12.02
2018-10-12T00:10:43.501Z,12.02
2018-10-12T00:13:13.159Z,11.89
2018-10-12T00:15:42.921Z,11.88
2018-10-12T00:18:12.539Z,11.81
2018-10-12T00:20:42.145Z,11.87
2018-10-12T00:23:12.834Z,11.81
2018-10-12T00:25:42.354Z,11.82
2018-10-12T00:28:12.177Z,11.82
2018-10-12T00:30:41.978Z,11.89
2018-10-12T00:33:11.617Z,11.92
2018-10-12T00:35:41.254Z,11.98
2018-10-12T00:38:10.932Z,12.04
2018-10-12T00:40:40.555Z,12.08
2018-10-12T00:43:10.107Z,12.14
2018-10-12T00:45:39.842Z,12.20
2018-10-12T00:48:09.629Z,12.27
2018-10-12T00:50:39.304Z,12.38
2018-10-12T00:53:09.045Z,12.36
2018-10-12T00:55:39.249Z,12.47
2018-10-12T00:58:09.150Z,12.49
2018-10-12T01:00:38.958Z,12.46
2018-10-12T01:03:08.555Z,12.41
2018-10-12T01:05:38.121Z,12.40
2018-10-12T01:08:07.840Z,12.37
2018-10-12T01:10:37.720Z,12.06
2018-10-12T01:13:07.463Z,11.88
2018-10-12T01:15:37.213Z,11.75
2018-10-12T01:18:06.720Z,11.58
2018-10-12T01:20:36.665Z,11.59
2018-10-12T01:23:06.423Z,11.49
2018-10-12T01:25:36.306Z,11.59
2018-10-12T01:28:06.558Z,11.68
2018-10-12T01:30:37.263Z,11.70
2018-10-12T01:33:07.564Z,11.70
2018-10-12T01:35:37.352Z,11.82
2018-10-12T01:38:06.909Z,11.92
2018-10-12T01:40:36.441Z,11.99
2018-10-12T01:43:07.200Z,12.06
2018-10-12T01:45:37.101Z,11.95
2018-10-12T01:48:06.639Z,12.01
2018-10-12T01:50:37.244Z,12.05
2018-10-12T01:53:07.192Z,11.97
2018-10-12T01:55:37.267Z,11.98
2018-10-12T01:58:07.752Z,12.02
2018-10-12T02:00:37.602Z,12.00
2018-10-12T02:03:07.329Z,12.05
2018-10-12T02:05:37.084Z,11.97
2018-10-12T02:08:06.911Z,12.00
2018-10-12T02:10:36.506Z,12.13
2018-10-12T02:13:06.152Z,12.16
2018-10-12T02:15:35.652Z,12.20
2018-10-12T02:18:05.447Z,12.20
2018-10-12T02:20:34.954Z,12.22
2018-10-12T02:23:04.563Z,12.25
2018-10-12T02:25:34.413Z,12.21
2018-10-12T02:28:04.162Z,12.28
2018-10-12T02:30:33.764Z,12.25
2018-10-12T02:33:03.503Z,12.04
2018-10-12T02:35:33.072Z,12.03
2018-10-12T02:38:02.633Z,12.04
2018-10-12T02:40:32.333Z,12.05
2018-10-12T02:43:02.013Z,11.98
2018-10-12T02:45:31.718Z,12.02
2018-10-12T02:48:01.348Z,12.00
2018-10-12T02:50:31.052Z,12.11
2018-10-12T02:53:00.787Z,12.14
2018-10-12T02:55:30.434Z,12.09
2018-10-12T02:58:00.099Z,12.22
2018-10-12T03:00:29.765Z,12.08
2018-10-12T03:02:59.308Z,12.07
2018-10-12T03:05:28.858Z,12.00
2018-10-12T03:07:58.598Z,12.04
2018-10-12T03:10:28.329Z,12.10
2018-10-12T03:12:57.969Z,11.98
2018-10-12T03:15:27.761Z,11.99
2018-10-12T03:17:57.501Z,12.04
2018-10-12T03:20:27.281Z,12.05
2018-10-12T03:22:56.909Z,12.03
2018-10-12T03:25:26.752Z,11.88
2018-10-12T03:28:07.281Z,11.82
2018-10-12T03:30:37.558Z,11.80
2018-10-12T03:33:07.509Z,11.76
2018-10-12T03:35:37.210Z,11.66
2018-10-12T03:38:07.117Z,11.73
2018-10-12T03:40:36.663Z,11.59
2018-10-12T03:43:06.243Z,11.56
2018-10-12T03:45:36.021Z,11.44
2018-10-12T03:48:05.729Z,11.30
2018-10-12T03:50:35.460Z,11.24
2018-10-12T03:53:05.442Z,11.22
2018-10-12T03:55:35.200Z,11.21
2018-10-12T03:58:04.957Z,11.10
2018-10-12T04:00:34.778Z,11.05
2018-10-12T04:03:04.752Z,11.07
2018-10-12T04:05:34.601Z,11.10
2018-10-12T04:08:04.208Z,11.02
2018-10-12T04:10:33.856Z,11.01
2018-10-12T04:13:03.467Z,10.91
2018-10-12T04:15:33.238Z,10.93
2018-10-12T04:18:04.257Z,10.85
2018-10-12T04:20:34.141Z,10.78
2018-10-12T04:23:04.455Z,10.67
2018-10-12T04:25:34.298Z,10.63
2018-10-12T04:28:03.976Z,10.63
2018-10-12T04:30:33.593Z,10.62
2018-10-12T04:33:03.337Z,10.59
2018-10-12T04:35:32.839Z,10.62
2018-10-12T04:38:02.608Z,10.64
2018-10-12T04:41:16.842Z,10.65
2018-10-12T04:43:47.603Z,10.65
2018-10-12T04:46:20.900Z,10.67
2018-10-12T04:48:53.177Z,10.76
2018-10-12T04:51:39.202Z,10.74
2018-10-12T04:54:09.108Z,10.79
2018-10-12T04:56:38.900Z,10.75
2018-10-12T04:59:08.813Z,10.64
2018-10-12T05:01:38.614Z,10.73
2018-10-12T05:04:08.401Z,10.78
2018-10-12T05:06:38.138Z,10.79
2018-10-12T05:09:09.594Z,10.84
2018-10-12T05:11:39.530Z,10.95
2018-10-12T05:14:09.640Z,11.02
2018-10-12T05:16:39.332Z,11.05
2018-10-12T05:19:09.230Z,11.29
2018-10-12T05:21:39.610Z,11.67
2018-10-12T05:24:09.895Z,12.07
2018-10-12T05:26:39.659Z,12.41
2018-10-12T05:29:09.220Z,12.46
2018-10-12T05:31:39.185Z,12.83
2018-10-12T05:34:08.821Z,13.05
2018-10-12T05:36:38.516Z,12.83
2018-10-12T05:39:10.903Z,12.66
2018-10-12T05:41:40.557Z,12.75
2018-10-12T05:44:10.342Z,12.88
2018-10-12T05:46:40.238Z,12.89
2018-10-12T05:49:20.768Z,12.83
2018-10-12T05:51:50.637Z,12.87
2018-10-12T05:54:20.607Z,13.21
2018-10-12T05:56:50.510Z,13.14
2018-10-12T05:59:20.424Z,12.99
2018-10-12T06:01:50.111Z,13.15
2018-10-12T06:04:19.941Z,13.37
2018-10-12T06:06:49.621Z,13.59
2018-10-12T06:09:19.443Z,13.61
2018-10-12T06:11:49.160Z,13.81
2018-10-12T06:14:18.860Z,13.66
2018-10-12T06:16:48.492Z,13.92
2018-10-12T06:19:18.060Z,14.18
2018-10-12T06:21:47.586Z,14.16
2018-10-12T06:24:17.477Z,14.40
2018-10-12T06:26:47.406Z,15.22
2018-10-12T06:29:18.674Z,16.37
2018-10-12T06:31:48.477Z,17.36
2018-10-12T06:34:18.089Z,17.99
2018-10-12T06:36:47.608Z,18.55
2018-10-12T06:39:17.464Z,18.81
2018-10-12T06:41:47.833Z,18.81
2018-10-12T06:44:17.588Z,19.51
2018-10-12T06:46:47.607Z,19.59
2018-10-12T06:49:17.109Z,19.97
2018-10-12T06:51:46.794Z,19.98
2018-10-12T06:54:16.335Z,19.86
2018-10-12T06:56:47.833Z,20.52
2018-10-12T06:59:17.887Z,20.64
2018-10-12T07:01:47.652Z,20.86
2018-10-12T07:04:17.197Z,20.10
2018-10-12T07:06:46.876Z,19.61
2018-10-12T07:09:16.673Z,19.64
2018-10-12T07:11:46.374Z,19.24
2018-10-12T07:14:15.852Z,18.45
2018-10-12T07:16:45.487Z,18.28
2018-10-12T07:19:15.314Z,18.28
2018-10-12T07:21:45.086Z,19.33
2018-10-12T07:24:14.811Z,18.99
2018-10-12T07:26:44.732Z,18.84
2018-10-12T07:29:14.344Z,18.10
2018-10-12T07:31:44.004Z,17.69
2018-10-12T07:34:13.792Z,17.93
2018-10-12T07:36:43.435Z,18.10
2018-10-12T07:39:13.151Z,18.45
2018-10-12T07:41:43.030Z,18.71
2018-10-12T07:44:12.822Z,19.19
2018-10-12T07:46:42.427Z,19.73
2018-10-12T07:49:12.101Z,20.96
2018-10-12T07:51:41.714Z,21.00
2018-10-12T07:54:11.399Z,20.86
2018-10-12T07:56:41.025Z,21.05
2018-10-12T07:59:10.816Z,21.62
2018-10-12T08:01:41.551Z,21.59
2018-10-12T08:04:11.816Z,21.85
2018-10-12T08:06:41.407Z,22.67
2018-10-12T08:09:11.251Z,22.18
2018-10-12T08:11:40.843Z,23.28
2018-10-12T08:14:10.791Z,23.95
2018-10-12T08:16:40.270Z,24.72
2018-10-12T08:19:12.991Z,25.70
2018-10-12T08:21:42.791Z,25.71
2018-10-12T08:24:12.763Z,25.50
2018-10-12T08:26:42.538Z,24.89
2018-10-12T08:29:12.323Z,24.75
2018-10-12T08:31:42.095Z,24.72
2018-10-12T08:34:11.807Z,23.98
2018-10-12T08:36:41.592Z,23.77
2018-10-12T08:39:13.055Z,23.14
2018-10-12T08:41:42.893Z,22.80
2018-10-12T08:44:12.545Z,22.43
2018-10-12T08:46:42.193Z,22.25
2018-10-12T08:49:11.790Z,22.71
2018-10-12T08:51:41.522Z,22.60
2018-10-12T08:54:11.316Z,22.85
2018-10-12T08:56:40.960Z,24.14
2018-10-12T08:59:10.740Z,25.55
2018-10-12T09:01:40.580Z,25.78
2018-10-12T09:04:10.142Z,25.59
2018-10-12T09:06:39.951Z,25.10
2018-10-12T09:09:11.316Z,24.42
2018-10-12T09:11:41.651Z,23.78
2018-10-12T09:14:11.259Z,24.51
2018-10-12T09:16:40.867Z,24.94
2018-10-12T09:19:10.657Z,24.26
2018-10-12T09:21:40.449Z,24.19
2018-10-12T09:24:10.156Z,24.21
2018-10-12T09:26:39.740Z,22.97
2018-10-12T09:29:09.494Z,23.42
2018-10-12T09:31:39.104Z,23.89
2018-10-12T09:34:09.388Z,23.84
2018-10-12T09:36:38.977Z,24.09
2018-10-12T09:39:08.955Z,24.77
2018-10-12T09:41:38.732Z,24.56
2018-10-12T09:44:08.472Z,24.43
2018-10-12T09:46:38.177Z,24.59
2018-10-12T09:49:08.244Z,25.36
2018-10-12T09:51:38.651Z,25.73
2018-10-12T09:54:08.287Z,25.34
2018-10-12T09:56:37.887Z,23.97
2018-10-12T09:59:07.710Z,23.60
2018-10-12T10:01:42.343Z,23.61
2018-10-12T10:04:16.983Z,23.48
2018-10-12T10:06:46.698Z,22.88
2018-10-12T10:09:16.202Z,23.79
2018-10-12T10:11:45.887Z,24.57
2018-10-12T10:14:15.507Z,25.74
2018-10-12T10:16:45.176Z,25.96
2018-10-12T10:19:14.877Z,25.48
2018-10-12T10:21:44.656Z,25.05
2018-10-12T10:24:14.323Z,24.68
2018-10-12T10:26:44.072Z,24.34
2018-10-12T10:29:13.860Z,24.30
2018-10-12T10:31:44.009Z,24.72
2018-10-12T10:34:13.648Z,25.35
2018-10-12T10:36:43.535Z,24.91
2018-10-12T10:39:13.965Z,24.87
2018-10-12T10:41:43.637Z,25.44
2018-10-12T10:44:13.318Z,24.58
2018-10-12T10:46:42.921Z,25.34
2018-10-12T10:49:13.620Z,26.18
2018-10-12T10:51:43.211Z,26.85
2018-10-12T10:54:12.975Z,27.32
2018-10-12T10:56:42.546Z,27.35
2018-10-12T10:59:13.299Z,26.82
2018-10-12T11:01:42.964Z,27.46
2018-10-12T11:04:13.252Z,26.80
2018-10-12T11:06:43.010Z,26.94
2018-10-12T11:09:12.805Z,27.62
2018-10-12T11:11:42.609Z,27.53
2018-10-12T11:14:12.205Z,27.54
2018-10-12T11:16:41.757Z,27.45
2018-10-12T11:19:11.564Z,27.56
2018-10-12T11:21:41.164Z,28.51
2018-10-12T11:24:10.954Z,28.26
2018-10-12T11:26:40.815Z,27.42
2018-10-12T11:29:10.501Z,28.29
2018-10-12T11:31:40.468Z,29.36
2018-10-12T11:34:11.038Z,29.06
2018-10-12T11:36:40.803Z,28.86
2018-10-12T11:39:14.651Z,27.76
2018-10-12T11:41:44.467Z,26.82
2018-10-12T11:44:14.175Z,26.73
2018-10-12T11:46:43.725Z,26.63
2018-10-12T11:49:13.343Z,27.06
2018-10-12T11:51:43.106Z,27.84
2018-10-12T11:54:12.779Z,28.78
2018-10-12T11:56:42.458Z,27.82
2018-10-12T11:59:12.018Z,28.49
2018-10-12T12:01:41.712Z,27.59
2018-10-12T12:04:11.408Z,27.43
2018-10-12T12:06:41.176Z,26.45
2018-10-12T12:09:11.212Z,25.89
2018-10-12T12:11:41.080Z,25.91
2018-10-12T12:14:10.980Z,25.26
2018-10-12T12:16:40.664Z,25.09
2018-10-12T12:19:10.332Z,24.84
2018-10-12T12:21:39.915Z,25.25
2018-10-12T12:24:09.647Z,25.34
2018-10-12T12:26:39.416Z,25.26
2018-10-12T12:29:09.096Z,25.37
2018-10-12T12:31:38.926Z,25.27
2018-10-12T12:34:08.515Z,25.62
2018-10-12T12:36:38.051Z,25.76
2018-10-12T12:39:08.837Z,25.90
2018-10-12T12:41:38.633Z,25.66
2018-10-12T12:44:08.293Z,25.43
2018-10-12T12:46:38.039Z,25.52
2018-10-12T12:49:08.132Z,26.00
2018-10-12T12:51:37.574Z,25.87
2018-10-12T12:54:07.120Z,26.07
2018-10-12T12:56:36.752Z,25.62
2018-10-12T12:59:06.396Z,25.50
2018-10-12T13:01:36.282Z,25.50
2018-10-12T13:04:06.096Z,25.27
2018-10-12T13:06:35.982Z,25.04
2018-10-12T13:09:07.017Z,24.97
2018-10-12T13:11:37.421Z,25.00
2018-10-12T13:14:07.254Z,24.46
2018-10-12T13:16:37.038Z,25.05
2018-10-12T13:19:06.676Z,24.90
2018-10-12T13:21:36.294Z,24.83
2018-10-12T13:24:06.282Z,24.73
2018-10-12T13:26:35.916Z,24.56
2018-10-12T13:29:06.127Z,24.40
2018-10-12T13:31:35.858Z,24.66
2018-10-12T13:34:05.508Z,24.61
2018-10-12T13:36:35.268Z,24.56
2018-10-12T13:39:05.959Z,24.55
2018-10-12T13:41:35.658Z,24.63
2018-10-12T13:44:05.523Z,24.50
2018-10-12T13:46:35.147Z,24.46
2018-10-12T13:49:05.060Z,24.56
2018-10-12T13:51:34.879Z,24.32
2018-10-12T13:54:04.744Z,24.19
2018-10-12T13:56:34.487Z,24.14
2018-10-12T13:59:04.385Z,24.02
2018-10-12T14:01:34.061Z,23.93
2018-10-12T14:04:03.686Z,23.89
2018-10-12T14:06:33.450Z,23.82
2018-10-12T14:09:03.396Z,23.73
2018-10-12T14:11:33.244Z,23.43
2018-10-12T14:14:03.447Z,23.49
2018-10-12T14:16:33.142Z,23.57
2018-10-12T14:19:03.260Z,23.32
2018-10-12T14:21:32.896Z,23.32
2018-10-12T14:24:02.461Z,23.29
2018-10-12T14:26:32.263Z,23.28
2018-10-12T14:29:02.087Z,23.40
2018-10-12T14:31:31.782Z,23.34
2018-10-12T14:34:01.400Z,23.25
2018-10-12T14:36:31.348Z,23.27
2018-10-12T14:39:01.037Z,23.18
2018-10-12T14:41:31.058Z,23.13
2018-10-12T14:44:01.068Z,22.93
2018-10-12T14:46:30.666Z,22.81
2018-10-12T14:49:00.496Z,22.80
2018-10-12T14:51:30.566Z,22.84
2018-10-12T14:54:00.535Z,22.88
2018-10-12T14:56:30.104Z,22.72
2018-10-12T14:58:59.788Z,22.67
2018-10-12T15:01:29.659Z,22.60
2018-10-12T15:03:59.669Z,22.61
2018-10-12T15:06:29.729Z,22.42
2018-10-12T15:09:00.383Z,22.33
2018-10-12T15:11:30.287Z,22.30
2018-10-12T15:13:59.894Z,22.15
2018-10-12T15:16:29.674Z,22.07
2018-10-12T15:18:59.361Z,21.91
2018-10-12T15:21:29.465Z,21.72
2018-10-12T15:23:58.906Z,21.59
2018-10-12T15:26:28.784Z,21.52
2018-10-12T15:28:58.591Z,21.43
2018-10-12T15:31:28.534Z,21.36
2018-10-12T15:33:58.333Z,21.14
2018-10-12T15:36:28.560Z,21.03
2018-10-12T15:38:58.369Z,20.85
2018-10-12T15:41:28.172Z,20.74
2018-10-12T15:43:57.806Z,20.48
2018-10-12T15:46:28.549Z,20.53
2018-10-12T15:48:58.465Z,20.50
2018-10-12T15:51:28.322Z,20.32
2018-10-12T15:53:57.981Z,20.26
2018-10-12T15:56:27.547Z,20.17
2018-10-12T15:58:57.297Z,20.11
2018-10-12T16:01:27.101Z,19.94
2018-10-12T16:03:56.801Z,19.84
2018-10-12T16:06:26.500Z,19.78
2018-10-12T16:08:56.418Z,19.79
2018-10-12T16:11:27.373Z,19.82
2018-10-12T16:13:57.709Z,19.86
2018-10-12T16:16:27.531Z,19.56
2018-10-12T16:18:57.328Z,19.49
2018-10-12T16:21:27.571Z,19.43
2018-10-12T16:23:57.385Z,19.23
2018-10-12T16:26:27.120Z,19.12
2018-10-12T16:28:56.926Z,19.11
2018-10-12T16:31:26.885Z,19.02
2018-10-12T16:33:56.561Z,18.98
2018-10-12T16:36:26.342Z,18.90
2018-10-12T16:38:56.167Z,18.82
2018-10-12T16:41:25.929Z,18.76
2018-10-12T16:43:55.703Z,18.70
2018-10-12T16:46:25.470Z,18.82
2018-10-12T16:48:55.657Z,18.83
2018-10-12T16:51:25.526Z,18.71
2018-10-12T16:53:55.172Z,18.54
2018-10-12T16:56:24.888Z,18.44
2018-10-12T16:58:54.639Z,18.41
2018-10-12T17:01:24.431Z,18.30
2018-10-12T17:03:53.945Z,18.22
2018-10-12T17:06:23.700Z,18.22
2018-10-12T17:08:53.638Z,18.14
2018-10-12T17:11:23.264Z,17.98
2018-10-12T17:13:52.857Z,17.92
2018-10-12T17:16:22.666Z,17.72
2018-10-12T17:18:52.153Z,17.54
2018-10-12T17:21:21.931Z,17.49
2018-10-12T17:23:51.754Z,17.51
2018-10-12T17:26:22.396Z,17.50
2018-10-12T17:28:52.193Z,17.54
2018-10-12T17:31:21.803Z,17.56
2018-10-12T17:33:51.437Z,17.53
2018-10-12T17:36:21.061Z,17.33
2018-10-12T17:38:50.814Z,17.36
2018-10-12T17:41:21.435Z,17.47
2018-10-12T17:43:51.141Z,17.43
2018-10-12T17:46:20.980Z,17.74
2018-10-12T17:48:50.589Z,17.62
2018-10-12T17:51:21.155Z,17.54
2018-10-12T17:53:50.851Z,17.54
2018-10-12T17:56:20.373Z,17.50
2018-10-12T17:58:50.119Z,17.44
2018-10-12T18:01:19.791Z,17.32
2018-10-12T18:03:49.562Z,17.32
2018-10-12T18:06:19.165Z,17.32
2018-10-12T18:08:48.919Z,17.21
2018-10-12T18:11:19.372Z,17.19
2018-10-12T18:13:48.995Z,17.20
2018-10-12T18:16:18.860Z,17.06
2018-10-12T18:18:49.039Z,17.02
2018-10-12T18:21:20.614Z,16.95
2018-10-12T18:23:50.189Z,16.92
2018-10-12T18:26:20.027Z,16.89
2018-10-12T18:28:49.863Z,16.82
2018-10-12T18:31:19.585Z,16.78
2018-10-12T18:33:49.444Z,16.80
2018-10-12T18:36:19.322Z,16.67
2018-10-12T18:38:49.171Z,16.61
2018-10-12T18:41:19.177Z,16.42
2018-10-12T18:43:49.939Z,16.43
2018-10-12T18:46:19.767Z,16.45
2018-10-12T18:48:49.430Z,16.29
2018-10-12T18:51:19.294Z,16.26
2018-10-12T18:53:49.074Z,16.24
2018-10-12T18:56:19.641Z,16.15
2018-10-12T18:58:49.390Z,16.05
2018-10-12T19:01:19.212Z,15.93
2018-10-12T19:03:49.355Z,15.93
2018-10-12T19:06:20.315Z,15.93
2018-10-12T19:08:50.360Z,15.80
2018-10-12T19:11:20.412Z,15.61
2018-10-12T19:13:50.599Z,15.75
2018-10-12T19:16:20.601Z,15.77
2018-10-12T19:18:50.410Z,15.78
2018-10-12T19:21:22.163Z,15.76
2018-10-12T19:23:52.285Z,15.68
2018-10-12T19:26:22.306Z,15.69
2018-10-12T19:28:52.547Z,15.54
2018-10-12T19:31:22.489Z,15.54
2018-10-12T19:33:52.656Z,15.65
2018-10-12T19:36:22.548Z,15.65
2018-10-12T19:38:52.543Z,15.64
2018-10-12T19:41:22.600Z,15.46
2018-10-12T19:43:52.642Z,15.36
2018-10-12T19:46:22.708Z,15.42
2018-10-12T19:48:52.635Z,15.36
2018-10-12T19:51:22.675Z,15.22
2018-10-12T19:53:52.787Z,15.29
2018-10-12T19:56:22.844Z,15.33
2018-10-12T19:58:52.842Z,15.33
2018-10-12T20:01:22.828Z,15.36
2018-10-12T20:03:52.650Z,15.38
2018-10-12T20:06:22.296Z,15.38
2018-10-12T20:08:52.149Z,15.44
2018-10-12T20:11:21.835Z,15.36
2018-10-12T20:13:51.476Z,15.22
2018-10-12T20:16:21.245Z,14.98
2018-10-12T20:18:50.977Z,15.02
2018-10-12T20:21:21.313Z,14.92
2018-10-12T20:23:51.410Z,14.80
2018-10-12T20:26:21.324Z,14.69
2018-10-12T20:28:51.216Z,14.73
2018-10-12T20:31:20.993Z,14.76
2018-10-12T20:33:51.453Z,14.86
2018-10-12T20:36:21.129Z,14.97
2018-10-12T20:38:50.997Z,14.96
2018-10-12T20:41:20.725Z,14.93
2018-10-12T20:43:50.469Z,14.91
2018-10-12T20:46:20.141Z,14.93
2018-10-12T20:48:49.698Z,14.89
2018-10-12T20:51:19.356Z,14.90
2018-10-12T20:53:49.144Z,14.92
2018-10-12T20:56:18.836Z,14.97
2018-10-12T20:58:50.821Z,14.98
2018-10-12T21:01:20.548Z,15.04
2018-10-12T21:03:50.348Z,15.04
2018-10-12T21:06:20.123Z,15.00
2018-10-12T21:08:49.873Z,14.99
2018-10-12T21:11:19.661Z,14.94
2018-10-12T21:13:49.269Z,14.91
2018-10-12T21:16:19.091Z,14.90
2018-10-12T21:18:48.835Z,14.87
2018-10-12T21:21:18.591Z,14.86
2018-10-12T21:23:48.193Z,14.79
2018-10-12T21:26:18.040Z,14.74
2018-10-12T21:28:47.904Z,14.57
2018-10-12T21:31:17.699Z,14.50
2018-10-12T21:33:47.259Z,14.44
2018-10-12T21:36:16.871Z,14.37
2018-10-12T21:38:46.344Z,14.27
2018-10-12T21:41:15.994Z,14.12
2018-10-12T21:43:45.615Z,14.10
2018-10-12T21:46:15.109Z,14.10
2018-10-12T21:48:44.891Z,14.07
2018-10-12T21:51:14.587Z,13.98
2018-10-12T21:53:44.316Z,13.91
2018-10-12T21:56:13.908Z,13.88
2018-10-12T21:58:44.282Z,13.87
2018-10-12T22:01:14.026Z,13.89
2018-10-12T22:03:43.764Z,13.78
2018-10-12T22:06:13.551Z,13.71
2018-10-12T22:08:48.383Z,13.37
2018-10-12T22:11:18.119Z,13.81
2018-10-12T22:13:47.849Z,13.75
2018-10-12T22:16:17.331Z,13.67
2018-10-12T22:18:46.988Z,13.59
2018-10-12T22:21:16.585Z,13.22
2018-10-12T22:23:46.287Z,13.18
2018-10-12T22:26:15.984Z,13.21
2018-10-12T22:28:45.774Z,13.21
2018-10-12T22:31:15.489Z,13.15
2018-10-12T22:33:45.160Z,13.18
2018-10-12T22:36:14.875Z,13.15
2018-10-12T22:38:44.426Z,13.36
2018-10-12T22:41:13.987Z,13.35
2018-10-12T22:43:43.739Z,13.40
2018-10-12T22:46:13.712Z,13.26
2018-10-12T22:48:43.426Z,13.16
2018-10-12T22:51:13.140Z,13.09
2018-10-12T22:53:42.756Z,13.06
2018-10-12T22:56:12.383Z,12.99
2018-10-12T22:58:41.937Z,13.00
2018-10-12T23:01:11.798Z,12.99
2018-10-12T23:03:41.429Z,12.95
2018-10-12T23:06:11.732Z,12.92
2018-10-12T23:08:41.334Z,12.94
2018-10-12T23:11:10.802Z,12.94
2018-10-12T23:13:40.348Z,12.93
2018-10-12T23:16:10.088Z,12.87
2018-10-12T23:18:39.872Z,12.78
2018-10-12T23:21:09.503Z,12.78
2018-10-12T23:23:39.290Z,12.80
2018-10-12T23:26:08.866Z,12.82
2018-10-12T23:28:38.396Z,12.91
2018-10-12T23:31:08.635Z,13.05
2018-10-12T23:33:49.199Z,13.06
2018-10-12T23:36:19.261Z,13.07
2018-10-12T23:38:48.867Z,13.11
2018-10-12T23:41:18.502Z,13.15
2018-10-12T23:43:47.941Z,13.25
2018-10-12T23:46:17.715Z,13.07
2018-10-12T23:48:47.297Z,13.03
2018-10-12T23:51:17.094Z,12.82
2018-10-12T23:53:47.746Z,12.81
2018-10-12T23:56:17.532Z,12.73
2018-10-12T23:58:47.707Z,12.54
